sensor_id;sensor_type;location;lat;lon;timestamp;P1;durP1;ratioP1;P2;durP2;ratioP2
54977;SDS011;40873;47.522;19.106;2024-02-26T00:01:17;20.77;;;11.75;;
54977;SDS011;40873;47.522;19.106;2024-02-26T00:03:54;22.25;;;11.15;;
54977;SDS011;40873;47.522;19.106;2024-02-26T00:06:26;19.42;;;11.32;;
54977;SDS011;40873;47.522;19.106;2024-02-26T00:08:53;19.52;;;10.98;;
54977;SDS011;40873;47.522;19.106;2024-02-26T00:11:20;18.50;;;10.95;;
54977;SDS011;40873;47.522;19.106;2024-02-26T00:13:47;20.83;;;10.55;;
54977;SDS011;40873;47.522;19.106;2024-02-26T00:16:14;18.08;;;11.05;;
54977;SDS011;40873;47.522;19.106;2024-02-26T00:18:41;18.67;;;10.00;;
54977;SDS011;40873;47.522;19.106;2024-02-26T00:21:10;20.77;;;11.50;;
54977;SDS011;40873;47.522;19.106;2024-02-26T00:23:37;20.02;;;9.40;;
54977;SDS011;40873;47.522;19.106;2024-02-26T00:26:04;18.85;;;9.73;;
54977;SDS011;40873;47.522;19.106;2024-02-26T00:28:31;17.23;;;9.98;;
54977;SDS011;40873;47.522;19.106;2024-02-26T00:30:58;16.10;;;8.48;;
54977;SDS011;40873;47.522;19.106;2024-02-26T00:33:25;19.13;;;10.25;;
54977;SDS011;40873;47.522;19.106;2024-02-26T00:35:52;19.20;;;9.90;;
54977;SDS011;40873;47.522;19.106;2024-02-26T00:38:19;19.85;;;9.52;;
54977;SDS011;40873;47.522;19.106;2024-02-26T00:40:47;18.60;;;9.10;;
54977;SDS011;40873;47.522;19.106;2024-02-26T00:43:14;16.67;;;8.98;;
54977;SDS011;40873;47.522;19.106;2024-02-26T00:45:41;20.40;;;10.15;;
54977;SDS011;40873;47.522;19.106;2024-02-26T00:48:08;15.50;;;8.75;;
54977;SDS011;40873;47.522;19.106;2024-02-26T00:50:36;14.82;;;8.45;;
54977;SDS011;40873;47.522;19.106;2024-02-26T00:53:03;17.80;;;8.82;;
54977;SDS011;40873;47.522;19.106;2024-02-26T00:55:30;16.88;;;9.45;;
54977;SDS011;40873;47.522;19.106;2024-02-26T00:57:57;18.73;;;9.90;;
54977;SDS011;40873;47.522;19.106;2024-02-26T01:00:24;17.08;;;8.80;;
54977;SDS011;40873;47.522;19.106;2024-02-26T01:02:51;17.83;;;10.30;;
54977;SDS011;40873;47.522;19.106;2024-02-26T01:05:19;20.02;;;9.80;;
54977;SDS011;40873;47.522;19.106;2024-02-26T01:07:46;16.88;;;9.40;;
54977;SDS011;40873;47.522;19.106;2024-02-26T01:10:13;14.50;;;8.43;;
54977;SDS011;40873;47.522;19.106;2024-02-26T01:12:40;16.25;;;8.77;;
54977;SDS011;40873;47.522;19.106;2024-02-26T01:15:07;17.02;;;9.35;;
54977;SDS011;40873;47.522;19.106;2024-02-26T01:17:35;16.98;;;9.63;;
54977;SDS011;40873;47.522;19.106;2024-02-26T01:20:03;18.42;;;9.30;;
54977;SDS011;40873;47.522;19.106;2024-02-26T01:22:31;17.45;;;8.93;;
54977;SDS011;40873;47.522;19.106;2024-02-26T01:24:58;17.30;;;9.15;;
54977;SDS011;40873;47.522;19.106;2024-02-26T01:27:25;19.85;;;9.88;;
54977;SDS011;40873;47.522;19.106;2024-02-26T01:29:54;18.95;;;9.70;;
54977;SDS011;40873;47.522;19.106;2024-02-26T01:32:21;19.27;;;10.93;;
54977;SDS011;40873;47.522;19.106;2024-02-26T01:34:48;17.58;;;10.00;;
54977;SDS011;40873;47.522;19.106;2024-02-26T01:37:15;22.23;;;10.98;;
54977;SDS011;40873;47.522;19.106;2024-02-26T01:39:42;19.88;;;11.73;;
54977;SDS011;40873;47.522;19.106;2024-02-26T01:42:12;21.42;;;12.25;;
54977;SDS011;40873;47.522;19.106;2024-02-26T01:44:39;19.95;;;10.55;;
54977;SDS011;40873;47.522;19.106;2024-02-26T01:47:07;22.55;;;11.50;;
54977;SDS011;40873;47.522;19.106;2024-02-26T01:49:37;19.95;;;10.82;;
54977;SDS011;40873;47.522;19.106;2024-02-26T01:52:06;21.23;;;10.65;;
54977;SDS011;40873;47.522;19.106;2024-02-26T01:54:35;19.27;;;10.73;;
54977;SDS011;40873;47.522;19.106;2024-02-26T01:57:05;20.33;;;10.40;;
54977;SDS011;40873;47.522;19.106;2024-02-26T01:59:34;21.00;;;10.70;;
54977;SDS011;40873;47.522;19.106;2024-02-26T02:02:02;19.98;;;10.85;;
54977;SDS011;40873;47.522;19.106;2024-02-26T02:04:33;19.83;;;10.90;;
54977;SDS011;40873;47.522;19.106;2024-02-26T02:07:01;19.90;;;10.65;;
54977;SDS011;40873;47.522;19.106;2024-02-26T02:09:29;24.25;;;12.43;;
54977;SDS011;40873;47.522;19.106;2024-02-26T02:11:56;23.35;;;12.02;;
54977;SDS011;40873;47.522;19.106;2024-02-26T02:14:25;21.08;;;11.85;;
54977;SDS011;40873;47.522;19.106;2024-02-26T02:16:52;23.33;;;12.40;;
54977;SDS011;40873;47.522;19.106;2024-02-26T02:19:19;22.13;;;12.55;;
54977;SDS011;40873;47.522;19.106;2024-02-26T02:21:46;22.33;;;12.20;;
54977;SDS011;40873;47.522;19.106;2024-02-26T02:24:13;24.92;;;11.85;;
54977;SDS011;40873;47.522;19.106;2024-02-26T02:26:40;20.77;;;11.60;;
54977;SDS011;40873;47.522;19.106;2024-02-26T02:29:07;21.65;;;12.02;;
54977;SDS011;40873;47.522;19.106;2024-02-26T02:31:36;18.10;;;11.13;;
54977;SDS011;40873;47.522;19.106;2024-02-26T02:34:05;21.05;;;11.75;;
54977;SDS011;40873;47.522;19.106;2024-02-26T02:36:32;25.27;;;11.85;;
54977;SDS011;40873;47.522;19.106;2024-02-26T02:38:59;19.48;;;11.75;;
54977;SDS011;40873;47.522;19.106;2024-02-26T02:41:26;20.63;;;11.75;;
54977;SDS011;40873;47.522;19.106;2024-02-26T02:43:54;23.20;;;11.82;;
54977;SDS011;40873;47.522;19.106;2024-02-26T02:46:21;20.83;;;11.20;;
54977;SDS011;40873;47.522;19.106;2024-02-26T02:48:48;19.83;;;11.98;;
54977;SDS011;40873;47.522;19.106;2024-02-26T02:51:15;21.70;;;11.65;;
54977;SDS011;40873;47.522;19.106;2024-02-26T02:53:42;21.67;;;11.35;;
54977;SDS011;40873;47.522;19.106;2024-02-26T02:56:09;23.25;;;12.43;;
54977;SDS011;40873;47.522;19.106;2024-02-26T02:58:36;21.83;;;11.40;;
54977;SDS011;40873;47.522;19.106;2024-02-26T03:01:03;20.08;;;11.05;;
54977;SDS011;40873;47.522;19.106;2024-02-26T03:03:30;22.67;;;12.05;;
54977;SDS011;40873;47.522;19.106;2024-02-26T03:05:57;22.55;;;12.65;;
54977;SDS011;40873;47.522;19.106;2024-02-26T03:08:25;21.08;;;11.40;;
54977;SDS011;40873;47.522;19.106;2024-02-26T03:10:52;21.15;;;11.63;;
54977;SDS011;40873;47.522;19.106;2024-02-26T03:13:20;22.25;;;12.60;;
54977;SDS011;40873;47.522;19.106;2024-02-26T03:15:47;23.15;;;13.50;;
54977;SDS011;40873;47.522;19.106;2024-02-26T03:18:14;23.10;;;12.02;;
54977;SDS011;40873;47.522;19.106;2024-02-26T03:20:41;22.42;;;12.25;;
54977;SDS011;40873;47.522;19.106;2024-02-26T03:23:08;21.17;;;12.88;;
54977;SDS011;40873;47.522;19.106;2024-02-26T03:25:38;22.17;;;12.93;;
54977;SDS011;40873;47.522;19.106;2024-02-26T03:28:09;27.20;;;14.32;;
54977;SDS011;40873;47.522;19.106;2024-02-26T03:30:36;21.35;;;11.88;;
54977;SDS011;40873;47.522;19.106;2024-02-26T03:33:03;21.88;;;12.68;;
54977;SDS011;40873;47.522;19.106;2024-02-26T03:35:30;19.05;;;11.60;;
54977;SDS011;40873;47.522;19.106;2024-02-26T03:37:58;22.20;;;12.63;;
54977;SDS011;40873;47.522;19.106;2024-02-26T03:40:26;21.75;;;12.32;;
54977;SDS011;40873;47.522;19.106;2024-02-26T03:42:53;22.55;;;12.55;;
54977;SDS011;40873;47.522;19.106;2024-02-26T03:45:20;24.90;;;12.52;;
54977;SDS011;40873;47.522;19.106;2024-02-26T03:47:48;22.02;;;12.52;;
54977;SDS011;40873;47.522;19.106;2024-02-26T03:50:15;21.92;;;12.05;;
54977;SDS011;40873;47.522;19.106;2024-02-26T03:52:43;21.30;;;11.90;;
54977;SDS011;40873;47.522;19.106;2024-02-26T03:55:10;24.15;;;11.70;;
54977;SDS011;40873;47.522;19.106;2024-02-26T03:57:37;23.90;;;12.80;;
54977;SDS011;40873;47.522;19.106;2024-02-26T04:00:04;25.42;;;12.75;;
54977;SDS011;40873;47.522;19.106;2024-02-26T04:02:31;19.00;;;11.25;;
54977;SDS011;40873;47.522;19.106;2024-02-26T04:04:58;21.50;;;12.18;;
54977;SDS011;40873;47.522;19.106;2024-02-26T04:07:26;22.63;;;12.60;;
54977;SDS011;40873;47.522;19.106;2024-02-26T04:09:53;20.15;;;11.75;;
54977;SDS011;40873;47.522;19.106;2024-02-26T04:12:20;22.08;;;11.73;;
54977;SDS011;40873;47.522;19.106;2024-02-26T04:14:48;22.90;;;12.57;;
54977;SDS011;40873;47.522;19.106;2024-02-26T04:17:16;22.05;;;11.40;;
54977;SDS011;40873;47.522;19.106;2024-02-26T04:19:43;23.23;;;11.80;;
54977;SDS011;40873;47.522;19.106;2024-02-26T04:22:10;22.10;;;12.18;;
54977;SDS011;40873;47.522;19.106;2024-02-26T04:24:37;18.85;;;10.93;;
54977;SDS011;40873;47.522;19.106;2024-02-26T04:27:04;22.23;;;11.10;;
54977;SDS011;40873;47.522;19.106;2024-02-26T04:29:31;17.35;;;10.95;;
54977;SDS011;40873;47.522;19.106;2024-02-26T04:31:58;21.40;;;11.52;;
54977;SDS011;40873;47.522;19.106;2024-02-26T04:34:25;20.25;;;11.32;;
54977;SDS011;40873;47.522;19.106;2024-02-26T04:36:55;23.15;;;11.45;;
54977;SDS011;40873;47.522;19.106;2024-02-26T04:39:22;19.35;;;10.93;;
54977;SDS011;40873;47.522;19.106;2024-02-26T04:41:49;18.55;;;10.32;;
54977;SDS011;40873;47.522;19.106;2024-02-26T04:44:16;21.33;;;12.18;;
54977;SDS011;40873;47.522;19.106;2024-02-26T04:46:43;23.17;;;12.60;;
54977;SDS011;40873;47.522;19.106;2024-02-26T04:49:10;19.50;;;10.32;;
54977;SDS011;40873;47.522;19.106;2024-02-26T04:51:37;19.83;;;10.52;;
54977;SDS011;40873;47.522;19.106;2024-02-26T04:54:04;18.90;;;11.05;;
54977;SDS011;40873;47.522;19.106;2024-02-26T04:56:32;22.23;;;11.02;;
54977;SDS011;40873;47.522;19.106;2024-02-26T04:58:58;18.42;;;10.68;;
54977;SDS011;40873;47.522;19.106;2024-02-26T05:01:26;19.83;;;10.30;;
54977;SDS011;40873;47.522;19.106;2024-02-26T05:03:52;18.83;;;11.23;;
54977;SDS011;40873;47.522;19.106;2024-02-26T05:06:20;19.10;;;10.70;;
54977;SDS011;40873;47.522;19.106;2024-02-26T05:08:50;21.38;;;11.68;;
54977;SDS011;40873;47.522;19.106;2024-02-26T05:11:17;19.63;;;11.57;;
54977;SDS011;40873;47.522;19.106;2024-02-26T05:13:45;22.42;;;11.88;;
54977;SDS011;40873;47.522;19.106;2024-02-26T05:16:12;19.50;;;11.35;;
54977;SDS011;40873;47.522;19.106;2024-02-26T05:18:39;21.00;;;12.10;;
54977;SDS011;40873;47.522;19.106;2024-02-26T05:21:06;18.20;;;11.45;;
54977;SDS011;40873;47.522;19.106;2024-02-26T05:23:33;19.95;;;11.18;;
54977;SDS011;40873;47.522;19.106;2024-02-26T05:26:00;21.15;;;10.70;;
54977;SDS011;40873;47.522;19.106;2024-02-26T05:28:27;21.55;;;11.45;;
54977;SDS011;40873;47.522;19.106;2024-02-26T05:30:55;20.52;;;10.98;;
54977;SDS011;40873;47.522;19.106;2024-02-26T05:33:22;24.08;;;11.55;;
54977;SDS011;40873;47.522;19.106;2024-02-26T05:35:50;19.92;;;11.45;;
54977;SDS011;40873;47.522;19.106;2024-02-26T05:38:17;20.52;;;11.23;;
54977;SDS011;40873;47.522;19.106;2024-02-26T05:40:44;21.48;;;10.93;;
54977;SDS011;40873;47.522;19.106;2024-02-26T05:43:12;20.48;;;11.50;;
54977;SDS011;40873;47.522;19.106;2024-02-26T05:45:43;30.08;;;17.02;;
54977;SDS011;40873;47.522;19.106;2024-02-26T05:48:10;37.05;;;19.80;;
54977;SDS011;40873;47.522;19.106;2024-02-26T05:50:37;33.88;;;18.58;;
54977;SDS011;40873;47.522;19.106;2024-02-26T05:53:04;26.77;;;13.20;;
54977;SDS011;40873;47.522;19.106;2024-02-26T05:55:31;21.75;;;12.20;;
54977;SDS011;40873;47.522;19.106;2024-02-26T05:57:58;25.08;;;13.15;;
54977;SDS011;40873;47.522;19.106;2024-02-26T06:00:25;24.17;;;12.82;;
54977;SDS011;40873;47.522;19.106;2024-02-26T06:02:52;22.45;;;13.20;;
54977;SDS011;40873;47.522;19.106;2024-02-26T06:05:22;22.58;;;12.57;;
54977;SDS011;40873;47.522;19.106;2024-02-26T06:07:49;21.88;;;11.65;;
54977;SDS011;40873;47.522;19.106;2024-02-26T06:10:20;23.75;;;11.55;;
54977;SDS011;40873;47.522;19.106;2024-02-26T06:12:47;19.08;;;10.57;;
54977;SDS011;40873;47.522;19.106;2024-02-26T06:15:15;24.23;;;10.68;;
54977;SDS011;40873;47.522;19.106;2024-02-26T06:17:42;23.83;;;11.73;;
54977;SDS011;40873;47.522;19.106;2024-02-26T06:20:09;19.30;;;10.02;;
54977;SDS011;40873;47.522;19.106;2024-02-26T06:22:42;19.73;;;11.15;;
54977;SDS011;40873;47.522;19.106;2024-02-26T06:25:09;22.65;;;11.02;;
54977;SDS011;40873;47.522;19.106;2024-02-26T06:27:36;21.80;;;11.07;;
54977;SDS011;40873;47.522;19.106;2024-02-26T06:30:04;21.98;;;11.57;;
54977;SDS011;40873;47.522;19.106;2024-02-26T06:32:31;23.38;;;11.75;;
54977;SDS011;40873;47.522;19.106;2024-02-26T06:34:58;22.42;;;11.85;;
54977;SDS011;40873;47.522;19.106;2024-02-26T06:37:26;19.25;;;10.18;;
54977;SDS011;40873;47.522;19.106;2024-02-26T06:39:53;22.75;;;10.93;;
54977;SDS011;40873;47.522;19.106;2024-02-26T06:42:19;22.77;;;11.13;;
54977;SDS011;40873;47.522;19.106;2024-02-26T06:44:47;21.70;;;11.02;;
54977;SDS011;40873;47.522;19.106;2024-02-26T06:47:14;19.75;;;10.50;;
54977;SDS011;40873;47.522;19.106;2024-02-26T06:49:41;22.35;;;11.15;;
54977;SDS011;40873;47.522;19.106;2024-02-26T06:52:08;18.42;;;10.55;;
54977;SDS011;40873;47.522;19.106;2024-02-26T06:54:35;24.27;;;11.30;;
54977;SDS011;40873;47.522;19.106;2024-02-26T06:57:02;20.38;;;10.65;;
54977;SDS011;40873;47.522;19.106;2024-02-26T06:59:30;20.52;;;10.73;;
54977;SDS011;40873;47.522;19.106;2024-02-26T07:01:57;23.77;;;11.60;;
54977;SDS011;40873;47.522;19.106;2024-02-26T07:04:24;21.83;;;11.38;;
54977;SDS011;40873;47.522;19.106;2024-02-26T07:06:51;20.27;;;10.25;;
54977;SDS011;40873;47.522;19.106;2024-02-26T07:09:18;20.92;;;11.30;;
54977;SDS011;40873;47.522;19.106;2024-02-26T07:11:45;21.83;;;11.85;;
54977;SDS011;40873;47.522;19.106;2024-02-26T07:14:12;25.00;;;11.18;;
54977;SDS011;40873;47.522;19.106;2024-02-26T07:16:39;23.30;;;11.70;;
54977;SDS011;40873;47.522;19.106;2024-02-26T07:19:06;19.80;;;10.45;;
54977;SDS011;40873;47.522;19.106;2024-02-26T07:21:33;27.27;;;12.52;;
54977;SDS011;40873;47.522;19.106;2024-02-26T07:24:01;21.75;;;11.73;;
54977;SDS011;40873;47.522;19.106;2024-02-26T07:26:28;21.20;;;11.43;;
54977;SDS011;40873;47.522;19.106;2024-02-26T07:28:57;23.50;;;13.13;;
54977;SDS011;40873;47.522;19.106;2024-02-26T07:31:24;21.52;;;12.55;;
54977;SDS011;40873;47.522;19.106;2024-02-26T07:33:51;19.65;;;11.80;;
54977;SDS011;40873;47.522;19.106;2024-02-26T07:36:18;26.42;;;13.20;;
54977;SDS011;40873;47.522;19.106;2024-02-26T07:38:46;21.92;;;12.18;;
54977;SDS011;40873;47.522;19.106;2024-02-26T07:41:15;22.73;;;13.02;;
54977;SDS011;40873;47.522;19.106;2024-02-26T07:43:42;23.75;;;13.20;;
54977;SDS011;40873;47.522;19.106;2024-02-26T07:46:11;26.27;;;13.52;;
54977;SDS011;40873;47.522;19.106;2024-02-26T07:48:39;21.40;;;13.45;;
54977;SDS011;40873;47.522;19.106;2024-02-26T07:51:06;25.42;;;13.10;;
54977;SDS011;40873;47.522;19.106;2024-02-26T07:53:33;24.38;;;14.73;;
54977;SDS011;40873;47.522;19.106;2024-02-26T07:56:00;27.98;;;16.08;;
54977;SDS011;40873;47.522;19.106;2024-02-26T07:58:27;25.02;;;14.10;;
54977;SDS011;40873;47.522;19.106;2024-02-26T08:00:54;20.52;;;13.30;;
54977;SDS011;40873;47.522;19.106;2024-02-26T08:03:22;29.77;;;15.48;;
54977;SDS011;40873;47.522;19.106;2024-02-26T08:05:52;30.95;;;16.15;;
54977;SDS011;40873;47.522;19.106;2024-02-26T08:08:19;29.90;;;15.13;;
54977;SDS011;40873;47.522;19.106;2024-02-26T08:10:46;23.63;;;13.82;;
54977;SDS011;40873;47.522;19.106;2024-02-26T08:13:13;34.45;;;14.90;;
54977;SDS011;40873;47.522;19.106;2024-02-26T08:15:41;31.85;;;17.33;;
54977;SDS011;40873;47.522;19.106;2024-02-26T08:18:08;29.70;;;16.88;;
54977;SDS011;40873;47.522;19.106;2024-02-26T08:20:35;31.77;;;17.35;;
54977;SDS011;40873;47.522;19.106;2024-02-26T08:23:04;27.17;;;16.20;;
54977;SDS011;40873;47.522;19.106;2024-02-26T08:25:31;31.17;;;19.23;;
54977;SDS011;40873;47.522;19.106;2024-02-26T08:27:58;33.20;;;17.25;;
54977;SDS011;40873;47.522;19.106;2024-02-26T08:30:25;34.05;;;19.67;;
54977;SDS011;40873;47.522;19.106;2024-02-26T08:32:52;33.30;;;18.48;;
54977;SDS011;40873;47.522;19.106;2024-02-26T08:35:20;36.97;;;19.65;;
54977;SDS011;40873;47.522;19.106;2024-02-26T08:37:47;34.78;;;18.73;;
54977;SDS011;40873;47.522;19.106;2024-02-26T08:40:14;36.75;;;19.60;;
54977;SDS011;40873;47.522;19.106;2024-02-26T08:42:42;30.23;;;17.85;;
54977;SDS011;40873;47.522;19.106;2024-02-26T08:45:09;33.80;;;18.50;;
54977;SDS011;40873;47.522;19.106;2024-02-26T08:47:37;32.67;;;18.33;;
54977;SDS011;40873;47.522;19.106;2024-02-26T08:50:04;33.90;;;19.13;;
54977;SDS011;40873;47.522;19.106;2024-02-26T08:52:32;36.42;;;19.33;;
54977;SDS011;40873;47.522;19.106;2024-02-26T08:54:59;30.45;;;18.58;;
54977;SDS011;40873;47.522;19.106;2024-02-26T08:57:27;34.80;;;18.83;;
54977;SDS011;40873;47.522;19.106;2024-02-26T08:59:54;33.22;;;19.48;;
54977;SDS011;40873;47.522;19.106;2024-02-26T09:02:21;33.28;;;18.50;;
54977;SDS011;40873;47.522;19.106;2024-02-26T09:04:48;32.50;;;19.73;;
54977;SDS011;40873;47.522;19.106;2024-02-26T09:07:18;33.22;;;18.90;;
54977;SDS011;40873;47.522;19.106;2024-02-26T09:09:45;34.30;;;18.90;;
54977;SDS011;40873;47.522;19.106;2024-02-26T09:12:12;31.55;;;19.33;;
54977;SDS011;40873;47.522;19.106;2024-02-26T09:14:39;35.45;;;18.85;;
54977;SDS011;40873;47.522;19.106;2024-02-26T09:17:06;32.83;;;18.23;;
54977;SDS011;40873;47.522;19.106;2024-02-26T09:19:34;32.67;;;21.02;;
54977;SDS011;40873;47.522;19.106;2024-02-26T09:22:01;35.80;;;20.00;;
54977;SDS011;40873;47.522;19.106;2024-02-26T09:24:28;35.33;;;20.50;;
54977;SDS011;40873;47.522;19.106;2024-02-26T09:26:56;38.67;;;20.52;;
54977;SDS011;40873;47.522;19.106;2024-02-26T09:29:22;40.00;;;21.08;;
54977;SDS011;40873;47.522;19.106;2024-02-26T09:31:50;34.05;;;20.73;;
54977;SDS011;40873;47.522;19.106;2024-02-26T09:34:17;39.20;;;20.83;;
54977;SDS011;40873;47.522;19.106;2024-02-26T09:36:44;33.80;;;21.00;;
54977;SDS011;40873;47.522;19.106;2024-02-26T09:39:11;34.75;;;21.70;;
54977;SDS011;40873;47.522;19.106;2024-02-26T09:41:39;34.33;;;20.30;;
54977;SDS011;40873;47.522;19.106;2024-02-26T09:44:06;36.70;;;19.90;;
54977;SDS011;40873;47.522;19.106;2024-02-26T09:46:34;37.05;;;20.50;;
54977;SDS011;40873;47.522;19.106;2024-02-26T09:49:01;45.00;;;23.08;;
54977;SDS011;40873;47.522;19.106;2024-02-26T09:51:29;37.60;;;20.33;;
54977;SDS011;40873;47.522;19.106;2024-02-26T09:53:56;33.15;;;20.17;;
54977;SDS011;40873;47.522;19.106;2024-02-26T09:56:30;32.40;;;19.27;;
54977;SDS011;40873;47.522;19.106;2024-02-26T09:58:59;33.35;;;19.67;;
54977;SDS011;40873;47.522;19.106;2024-02-26T10:01:27;31.60;;;18.77;;
54977;SDS011;40873;47.522;19.106;2024-02-26T10:03:56;34.00;;;19.80;;
54977;SDS011;40873;47.522;19.106;2024-02-26T10:06:26;32.35;;;19.48;;
54977;SDS011;40873;47.522;19.106;2024-02-26T10:09:02;36.10;;;19.55;;
54977;SDS011;40873;47.522;19.106;2024-02-26T10:11:32;30.38;;;17.63;;
54977;SDS011;40873;47.522;19.106;2024-02-26T10:14:02;29.00;;;16.38;;
54977;SDS011;40873;47.522;19.106;2024-02-26T10:16:29;31.45;;;17.10;;
54977;SDS011;40873;47.522;19.106;2024-02-26T10:18:57;35.63;;;17.38;;
54977;SDS011;40873;47.522;19.106;2024-02-26T10:21:26;31.23;;;18.08;;
54977;SDS011;40873;47.522;19.106;2024-02-26T10:23:54;32.90;;;17.48;;
54977;SDS011;40873;47.522;19.106;2024-02-26T10:26:22;27.08;;;16.00;;
54977;SDS011;40873;47.522;19.106;2024-02-26T10:28:49;27.50;;;15.45;;
54977;SDS011;40873;47.522;19.106;2024-02-26T10:31:21;27.23;;;16.15;;
54977;SDS011;40873;47.522;19.106;2024-02-26T10:33:48;25.98;;;16.33;;
54977;SDS011;40873;47.522;19.106;2024-02-26T10:36:16;28.30;;;16.27;;
54977;SDS011;40873;47.522;19.106;2024-02-26T10:38:43;29.00;;;17.83;;
54977;SDS011;40873;47.522;19.106;2024-02-26T10:41:13;31.95;;;16.55;;
54977;SDS011;40873;47.522;19.106;2024-02-26T10:43:42;31.70;;;16.33;;
54977;SDS011;40873;47.522;19.106;2024-02-26T10:46:10;30.63;;;16.63;;
54977;SDS011;40873;47.522;19.106;2024-02-26T10:48:38;27.63;;;16.17;;
54977;SDS011;40873;47.522;19.106;2024-02-26T10:51:06;27.88;;;15.65;;
54977;SDS011;40873;47.522;19.106;2024-02-26T10:53:37;26.75;;;15.52;;
54977;SDS011;40873;47.522;19.106;2024-02-26T10:56:05;27.15;;;16.13;;
54977;SDS011;40873;47.522;19.106;2024-02-26T10:58:33;20.80;;;12.65;;
54977;SDS011;40873;47.522;19.106;2024-02-26T11:01:01;24.00;;;15.18;;
54977;SDS011;40873;47.522;19.106;2024-02-26T11:03:29;28.45;;;15.23;;
54977;SDS011;40873;47.522;19.106;2024-02-26T11:06:03;25.27;;;15.67;;
54977;SDS011;40873;47.522;19.106;2024-02-26T11:08:30;22.77;;;14.23;;
54977;SDS011;40873;47.522;19.106;2024-02-26T11:10:59;25.55;;;15.50;;
54977;SDS011;40873;47.522;19.106;2024-02-26T11:13:27;26.77;;;16.33;;
54977;SDS011;40873;47.522;19.106;2024-02-26T11:16:01;25.40;;;15.35;;
54977;SDS011;40873;47.522;19.106;2024-02-26T11:18:28;25.77;;;15.32;;
54977;SDS011;40873;47.522;19.106;2024-02-26T11:20:57;23.50;;;14.07;;
54977;SDS011;40873;47.522;19.106;2024-02-26T11:23:25;23.48;;;14.43;;
54977;SDS011;40873;47.522;19.106;2024-02-26T11:25:53;21.35;;;14.07;;
54977;SDS011;40873;47.522;19.106;2024-02-26T11:28:26;24.00;;;12.90;;
54977;SDS011;40873;47.522;19.106;2024-02-26T11:30:55;22.55;;;12.13;;
54977;SDS011;40873;47.522;19.106;2024-02-26T11:33:26;20.17;;;12.60;;
54977;SDS011;40873;47.522;19.106;2024-02-26T11:35:54;25.70;;;15.13;;
54977;SDS011;40873;47.522;19.106;2024-02-26T11:38:22;19.80;;;12.75;;
54977;SDS011;40873;47.522;19.106;2024-02-26T11:40:52;21.25;;;13.70;;
54977;SDS011;40873;47.522;19.106;2024-02-26T11:43:23;15.25;;;10.40;;
54977;SDS011;40873;47.522;19.106;2024-02-26T11:46:26;17.05;;;10.85;;
54977;SDS011;40873;47.522;19.106;2024-02-26T11:49:42;13.98;;;9.85;;
54977;SDS011;40873;47.522;19.106;2024-02-26T11:52:04;12.35;;;8.82;;
54977;SDS011;40873;47.522;19.106;2024-02-26T11:57:28;13.15;;;8.57;;
54977;SDS011;40873;47.522;19.106;2024-02-26T12:05:10;11.80;;;8.68;;
54977;SDS011;40873;47.522;19.106;2024-02-26T12:07:54;12.57;;;8.85;;
54977;SDS011;40873;47.522;19.106;2024-02-26T12:10:38;13.90;;;8.50;;
54977;SDS011;40873;47.522;19.106;2024-02-26T12:13:13;13.20;;;7.53;;
54977;SDS011;40873;47.522;19.106;2024-02-26T12:15:55;13.57;;;8.48;;
54977;SDS011;40873;47.522;19.106;2024-02-26T12:18:25;11.95;;;7.22;;
54977;SDS011;40873;47.522;19.106;2024-02-26T12:21:01;12.85;;;6.63;;
54977;SDS011;40873;47.522;19.106;2024-02-26T12:23:30;11.70;;;6.93;;
54977;SDS011;40873;47.522;19.106;2024-02-26T12:26:00;12.13;;;6.65;;
54977;SDS011;40873;47.522;19.106;2024-02-26T12:28:33;9.93;;;6.80;;
54977;SDS011;40873;47.522;19.106;2024-02-26T12:31:00;11.82;;;6.60;;
54977;SDS011;40873;47.522;19.106;2024-02-26T12:33:27;14.10;;;6.00;;
54977;SDS011;40873;47.522;19.106;2024-02-26T12:35:56;10.93;;;6.95;;
54977;SDS011;40873;47.522;19.106;2024-02-26T12:38:25;10.23;;;6.35;;
54977;SDS011;40873;47.522;19.106;2024-02-26T12:40:54;9.63;;;5.50;;
54977;SDS011;40873;47.522;19.106;2024-02-26T12:43:21;12.25;;;6.95;;
54977;SDS011;40873;47.522;19.106;2024-02-26T12:45:48;10.90;;;6.10;;
54977;SDS011;40873;47.522;19.106;2024-02-26T12:48:15;10.25;;;6.00;;
54977;SDS011;40873;47.522;19.106;2024-02-26T12:50:45;8.15;;;5.78;;
54977;SDS011;40873;47.522;19.106;2024-02-26T12:53:16;14.63;;;6.63;;
54977;SDS011;40873;47.522;19.106;2024-02-26T12:55:45;10.18;;;6.93;;
54977;SDS011;40873;47.522;19.106;2024-02-26T12:58:12;11.68;;;6.85;;
54977;SDS011;40873;47.522;19.106;2024-02-26T13:00:40;9.45;;;6.50;;
54977;SDS011;40873;47.522;19.106;2024-02-26T13:03:09;9.80;;;6.30;;
54977;SDS011;40873;47.522;19.106;2024-02-26T13:05:36;9.00;;;6.85;;
54977;SDS011;40873;47.522;19.106;2024-02-26T13:08:04;8.25;;;6.85;;
54977;SDS011;40873;47.522;19.106;2024-02-26T13:10:34;10.07;;;6.15;;
54977;SDS011;40873;47.522;19.106;2024-02-26T13:13:02;13.85;;;6.28;;
54977;SDS011;40873;47.522;19.106;2024-02-26T13:15:29;9.05;;;5.30;;
54977;SDS011;40873;47.522;19.106;2024-02-26T13:17:57;8.27;;;6.53;;
54977;SDS011;40873;47.522;19.106;2024-02-26T13:20:28;13.48;;;6.38;;
54977;SDS011;40873;47.522;19.106;2024-02-26T13:23:06;10.95;;;6.75;;
54977;SDS011;40873;47.522;19.106;2024-02-26T13:25:34;9.65;;;6.50;;
54977;SDS011;40873;47.522;19.106;2024-02-26T13:28:06;8.73;;;6.72;;
54977;SDS011;40873;47.522;19.106;2024-02-26T13:30:40;8.85;;;6.20;;
54977;SDS011;40873;47.522;19.106;2024-02-26T13:33:11;10.38;;;6.38;;
54977;SDS011;40873;47.522;19.106;2024-02-26T13:35:39;7.43;;;5.13;;
54977;SDS011;40873;47.522;19.106;2024-02-26T13:38:07;9.02;;;5.57;;
54977;SDS011;40873;47.522;19.106;2024-02-26T13:40:34;6.65;;;4.68;;
54977;SDS011;40873;47.522;19.106;2024-02-26T13:43:02;7.50;;;5.20;;
54977;SDS011;40873;47.522;19.106;2024-02-26T13:45:29;10.02;;;5.28;;
54977;SDS011;40873;47.522;19.106;2024-02-26T13:48:01;9.15;;;4.65;;
54977;SDS011;40873;47.522;19.106;2024-02-26T13:50:32;9.98;;;5.43;;
54977;SDS011;40873;47.522;19.106;2024-02-26T13:53:00;8.10;;;5.30;;
54977;SDS011;40873;47.522;19.106;2024-02-26T13:55:26;5.20;;;3.75;;
54977;SDS011;40873;47.522;19.106;2024-02-26T13:57:58;9.07;;;4.22;;
54977;SDS011;40873;47.522;19.106;2024-02-26T14:00:27;6.20;;;3.63;;
54977;SDS011;40873;47.522;19.106;2024-02-26T14:02:59;6.75;;;3.90;;
54977;SDS011;40873;47.522;19.106;2024-02-26T14:05:26;8.73;;;4.72;;
54977;SDS011;40873;47.522;19.106;2024-02-26T14:07:54;9.57;;;5.75;;
54977;SDS011;40873;47.522;19.106;2024-02-26T14:10:22;8.27;;;5.13;;
54977;SDS011;40873;47.522;19.106;2024-02-26T14:12:49;10.73;;;5.80;;
54977;SDS011;40873;47.522;19.106;2024-02-26T14:15:16;7.20;;;5.90;;
54977;SDS011;40873;47.522;19.106;2024-02-26T14:17:43;9.50;;;6.78;;
54977;SDS011;40873;47.522;19.106;2024-02-26T14:20:10;11.00;;;8.05;;
54977;SDS011;40873;47.522;19.106;2024-02-26T14:22:38;10.70;;;7.57;;
54977;SDS011;40873;47.522;19.106;2024-02-26T14:25:05;9.35;;;7.10;;
54977;SDS011;40873;47.522;19.106;2024-02-26T14:27:32;12.02;;;8.07;;